createdAt,value
2023-01-15T00:00:00.000Z,4.74
2023-01-15T00:15:00.000Z,4.86
2023-01-15T00:30:00.000Z,5.15
2023-01-15T00:45:00.000Z,4.95
2023-01-15T01:00:00.000Z,4.74
2023-01-15T01:15:00.000Z,4.64
2023-01-15T01:30:00.000Z,4.53
2023-01-15T01:45:00.000Z,4.65
2023-01-15T02:00:00.000Z,4.64
2023-01-15T02:15:00.000Z,4.69
2023-01-15T02:30:00.000Z,4.45
2023-01-15T02:45:00.000Z,4.52
2023-01-15T03:00:00.000Z,4.38
2023-01-15T03:15:00.000Z,4.34
2023-01-15T03:30:00.000Z,4.4
2023-01-15T03:45:00.000Z,4.41
2023-01-15T04:00:00.000Z,4.51
2023-01-15T04:15:00.000Z,4.53
2023-01-15T04:30:00.000Z,4.55
2023-01-15T04:45:00.000Z,4.25
2023-01-15T05:00:00.000Z,4.24
2023-01-15T05:15:00.000Z,4.36
2023-01-15T05:30:00.000Z,4.27
2023-01-15T05:45:00.000Z,4.22
2023-01-15T06:00:00.000Z,4.4
2023-01-15T06:15:00.000Z,4.49
2023-01-15T06:30:00.000Z,4.39
2023-01-15T06:45:00.000Z,4.19
2023-01-15T07:00:00.000Z,4.42
2023-01-15T07:15:00.000Z,4.41
2023-01-15T07:30:00.000Z,4.84
2023-01-15T07:45:00.000Z,4.92
2023-01-15T08:00:00.000Z,4.61
2023-01-15T08:15:00.000Z,5.33
2023-01-15T08:30:00.000Z,5.54
2023-01-15T08:45:00.000Z,4.71
2023-01-15T09:00:00.000Z,5.56
2023-01-15T09:15:00.000Z,5.08
2023-01-15T09:30:00.000Z,6.82
2023-01-15T09:45:00.000Z,7.2
2023-01-15T10:00:00.000Z,9.32
2023-01-15T10:15:00.000Z,8.08
2023-01-15T10:30:00.000Z,7
2023-01-15T10:45:00.000Z,8.28
2023-01-15T11:00:00.000Z,7.38
2023-01-15T11:15:00.000Z,7.12
2023-01-15T11:30:00.000Z,9.38
2023-01-15T11:45:00.000Z,11.51
2023-01-15T12:00:00.000Z,12.2
2023-01-15T12:15:00.000Z,7.1
2023-01-15T12:30:00.000Z,4.82
2023-01-15T12:45:00.000Z,8.45
2023-01-15T13:00:00.000Z,16.32
2023-01-15T13:15:00.000Z,6.96
2023-01-15T13:30:00.000Z,5.69
2023-01-15T13:45:00.000Z,7.78
2023-01-15T14:00:00.000Z,10.84
2023-01-15T14:15:00.000Z,5.86
2023-01-15T14:30:00.000Z,14.2
2023-01-15T14:45:00.000Z,7.93
2023-01-15T15:00:00.000Z,8.07
2023-01-15T15:15:00.000Z,7.2
2023-01-15T15:30:00.000Z,5.76
2023-01-15T15:45:00.000Z,7.38
2023-01-15T16:00:00.000Z,10.86
2023-01-15T16:15:00.000Z,7.8
2023-01-15T16:30:00.000Z,13.01
2023-01-15T16:45:00.000Z,9.39
2023-01-15T17:00:00.000Z,10
2023-01-15T17:15:00.000Z,12.04
2023-01-15T17:30:00.000Z,9.21
2023-01-15T17:45:00.000Z,16.78
2023-01-15T18:00:00.000Z,11.29
2023-01-15T18:15:00.000Z,10.18
2023-01-15T18:30:00.000Z,11.11
2023-01-15T18:45:00.000Z,9.69
2023-01-15T19:00:00.000Z,8.65
2023-01-15T19:15:00.000Z,8.79
2023-01-15T19:30:00.000Z,7.84
2023-01-15T19:45:00.000Z,24.09
2023-01-15T20:00:00.000Z,9.48
2023-01-15T20:15:00.000Z,11.61
2023-01-15T20:30:00.000Z,11.92
2023-01-15T20:45:00.000Z,12.27
2023-01-15T21:00:00.000Z,12.27
2023-01-15T21:15:00.000Z,14.16
2023-01-15T21:30:00.000Z,17.16
2023-01-15T21:45:00.000Z,17.94
2023-01-15T22:00:00.000Z,16.71
2023-01-15T22:15:00.000Z,17.69
2023-01-15T22:30:00.000Z,17.34
2023-01-15T22:45:00.000Z,18.55
2023-01-15T23:00:00.000Z,20.15
2023-01-15T23:15:00.000Z,20.94
2023-01-15T23:30:00.000Z,18.94
2023-01-15T23:45:00.000Z,20.48
